Nearby METAR Reports

 

NZWN - Wellington Intl, New Zealand
Distance from station: E 68km
Updated: 22/10/2018 21:30
Clear
Clear
 Wind from N
Wind: N 19 km/h
Temperature: 15°C
Dew Point: 10°C
Humidity: 72%
Barometer: 1025 hPa
Clouds: Clear
Visibility: 10 km
2018/10/22 08:30 NZWN 220830Z AUTO 01010KT 9999 NCD 15/10 Q1025 NOSIG
NZCH - Christchurch Int, New Zealand
Distance from station: SSW 269km
Updated: 22/10/2018 21:30
Overcast
Overcast
 Wind from ENE
Wind: ENE 26 km/h
Temperature: 14°C
Dew Point: 12°C
Humidity: 88%
Barometer: 1023 hPa
Clouds: Overcast
Visibility: 10 km
Cloud details: Overcast 274 m
2018/10/22 08:30 NZCH 220830Z AUTO 07014KT 9999 OVC009/// 14/12 Q1023 NOSIG
 
NZAA - Auckland Intl Ar, New Zealand
Distance from station: N 480km
Updated: 22/10/2018 21:30
Clear
Clear
 Wind from SW
Wind: SW 13 km/h
Temperature: 15°C
Dew Point: 12°C
Humidity: 82%
Barometer: 1026 hPa
Clouds: Clear
Visibility: 10 km
2018/10/22 08:30 NZAA 220830Z AUTO 23007KT 9999 NCD 15/12 Q1026 NOSIG